Time;durP1;ratioP1;P1;durP2;ratioP2;P2;SDS_P1;SDS_P2;PMS_P1;PMS_P2;Temp;Humidity;BMP_temperature;BMP_pressure;BME280_temperature;BME280_humidity;BME280_pressure;Samples;Min_cycle;Max_cycle;Signal;HPM_P1;HPM_P2
2021/03/01 00:00:24;;;;;;;21.48;9.10;;;4.00;99.90;;;;;;5021630;28;20069;-61
2021/03/01 00:02:50;;;;;;;19.75;9.15;;;4.00;99.90;;;;;;5009040;28;20053;-61
2021/03/01 00:05:16;;;;;;;13.10;7.80;;;4.00;99.90;;;;;;4994963;28;20037;-62
2021/03/01 00:07:42;;;;;;;17.35;8.68;;;3.90;99.90;;;;;;4998934;28;20026;-61
2021/03/01 00:10:10;;;;;;;18.45;9.00;;;3.90;99.90;;;;;;5000554;28;20030;-65
2021/03/01 00:12:35;;;;;;;19.92;9.00;;;3.90;99.90;;;;;;5009993;28;20084;-61
2021/03/01 00:15:02;;;;;;;17.63;9.45;;;3.80;99.90;;;;;;5011206;28;20038;-62
2021/03/01 00:17:28;;;;;;;18.90;9.15;;;3.80;99.90;;;;;;5006121;28;20048;-61
2021/03/01 00:19:54;;;;;;;19.52;8.10;;;3.80;99.90;;;;;;4999951;28;20037;-61
2021/03/01 00:22:19;;;;;;;18.55;9.93;;;3.70;99.90;;;;;;5000444;28;20683;-60
2021/03/01 00:24:45;;;;;;;18.05;8.82;;;3.70;99.90;;;;;;5008275;28;20021;-59
2021/03/01 00:27:10;;;;;;;14.18;7.78;;;3.70;99.90;;;;;;5006049;28;20034;-60
2021/03/01 00:29:36;;;;;;;17.67;8.45;;;3.70;99.90;;;;;;5005196;28;20029;-63
2021/03/01 00:32:02;;;;;;;14.63;8.02;;;3.70;99.90;;;;;;5017343;28;20102;-61
2021/03/01 00:34:28;;;;;;;13.68;7.88;;;3.60;99.90;;;;;;5007412;28;20037;-62
2021/03/01 00:36:53;;;;;;;19.02;8.57;;;3.70;99.90;;;;;;5015648;28;20040;-61
2021/03/01 00:39:19;;;;;;;18.45;8.38;;;3.70;99.90;;;;;;5007366;28;20037;-62
2021/03/01 00:41:44;;;;;;;16.73;7.50;;;3.70;99.90;;;;;;5017919;28;20489;-60
2021/03/01 00:44:10;;;;;;;18.25;8.30;;;3.80;99.90;;;;;;5021064;28;20505;-58
2021/03/01 00:46:35;;;;;;;19.55;8.95;;;3.80;99.90;;;;;;5007009;28;20018;-59
2021/03/01 00:49:01;;;;;;;18.35;8.23;;;3.80;99.90;;;;;;5020779;28;20033;-60
2021/03/01 00:51:27;;;;;;;21.10;9.35;;;3.70;99.90;;;;;;5015903;28;20037;-61
2021/03/01 00:53:52;;;;;;;19.33;8.63;;;3.70;99.90;;;;;;4992894;28;20581;-60
2021/03/01 00:56:18;;;;;;;19.27;8.27;;;3.70;99.90;;;;;;5001636;28;20435;-59
2021/03/01 00:58:43;;;;;;;12.75;7.68;;;3.70;99.90;;;;;;5012962;28;20060;-59
2021/03/01 01:01:09;;;;;;;21.77;8.18;;;3.70;99.90;;;;;;5021221;28;20030;-60
2021/03/01 01:03:34;;;;;;;17.27;8.07;;;3.70;99.90;;;;;;5011869;28;20026;-59
2021/03/01 01:06:00;;;;;;;19.73;8.52;;;3.60;99.90;;;;;;5019779;28;20112;-61
2021/03/01 01:08:26;;;;;;;19.80;8.20;;;3.70;99.90;;;;;;5011464;28;20022;-61
2021/03/01 01:10:51;;;;;;;20.17;9.40;;;3.60;99.90;;;;;;5014978;28;20025;-59
2021/03/01 01:13:17;;;;;;;17.88;8.27;;;3.60;99.90;;;;;;5021174;28;20076;-59
2021/03/01 01:15:42;;;;;;;18.40;9.15;;;3.50;99.90;;;;;;4995023;28;20126;-60
2021/03/01 01:18:08;;;;;;;21.35;8.80;;;3.30;99.90;;;;;;5008166;28;20048;-60
2021/03/01 01:20:34;;;;;;;15.98;8.23;;;3.20;99.90;;;;;;5004595;28;20475;-60
2021/03/01 01:22:59;;;;;;;18.27;8.00;;;3.10;99.90;;;;;;5008454;28;20041;-60
2021/03/01 01:25:25;;;;;;;19.23;8.57;;;3.10;99.90;;;;;;5009159;28;20026;-61
2021/03/01 01:27:51;;;;;;;36.42;11.48;;;3.10;99.90;;;;;;5013031;28;20101;-61
2021/03/01 01:30:20;;;;;;;21.50;9.07;;;3.20;99.90;;;;;;5007835;28;20037;-59
2021/03/01 01:32:46;;;;;;;21.13;8.57;;;3.20;99.90;;;;;;5010577;28;20088;-59
2021/03/01 01:35:12;;;;;;;16.55;7.70;;;3.20;99.90;;;;;;5016293;28;20022;-61
2021/03/01 01:37:39;;;;;;;14.57;7.68;;;3.20;99.90;;;;;;5000784;28;20038;-59
2021/03/01 01:40:08;;;;;;;16.15;8.23;;;3.30;99.90;;;;;;5006169;28;20040;-60
2021/03/01 01:42:34;;;;;;;16.65;7.03;;;3.30;99.90;;;;;;5015890;28;20038;-58
2021/03/01 01:45:00;;;;;;;14.60;7.82;;;3.30;99.90;;;;;;5017842;28;20049;-59
2021/03/01 01:47:25;;;;;;;15.48;7.70;;;3.30;99.90;;;;;;5019817;28;20029;-60
2021/03/01 01:49:51;;;;;;;17.52;7.95;;;3.20;99.90;;;;;;5002910;28;21981;-58
2021/03/01 01:52:17;;;;;;;19.50;8.68;;;3.20;99.90;;;;;;5015064;28;20083;-59
2021/03/01 01:54:43;;;;;;;14.75;7.47;;;3.20;99.90;;;;;;4995188;28;20439;-60
2021/03/01 01:57:11;;;;;;;14.68;7.28;;;3.20;99.90;;;;;;5015141;28;20080;-60
2021/03/01 01:59:36;;;;;;;15.73;8.23;;;3.20;99.90;;;;;;5009076;28;20118;-61
2021/03/01 02:02:02;;;;;;;18.05;7.93;;;3.20;99.90;;;;;;5005185;28;20493;-60
2021/03/01 02:04:31;;;;;;;19.77;7.88;;;3.10;99.90;;;;;;5029066;28;20026;-59
2021/03/01 02:07:09;;;;;;;17.45;8.00;;;2.90;99.90;;;;;;5014301;28;20026;-61
2021/03/01 02:09:40;;;;;;;20.73;9.18;;;2.90;99.90;;;;;;5016669;28;20037;-60
2021/03/01 02:12:22;;;;;;;21.13;8.52;;;2.80;99.90;;;;;;5012016;28;20041;-60
2021/03/01 02:15:09;;;;;;;18.90;9.05;;;2.70;99.90;;;;;;5009097;28;20089;-61
2021/03/01 02:17:35;;;;;;;17.90;7.93;;;2.60;99.90;;;;;;5021709;28;20396;-59
2021/03/01 02:20:01;;;;;;;16.98;8.07;;;2.60;99.90;;;;;;5008306;28;20033;-60
2021/03/01 02:22:27;;;;;;;19.08;9.77;;;2.50;99.90;;;;;;5009459;28;20091;-61
2021/03/01 02:25:06;;;;;;;22.55;10.00;;;2.40;99.90;;;;;;5012836;28;20022;-60
2021/03/01 02:27:36;;;;;;;17.15;9.15;;;2.40;99.90;;;;;;5016246;28;20036;-60
2021/03/01 02:30:15;;;;;;;19.05;8.75;;;2.40;99.90;;;;;;5005457;28;20029;-60
2021/03/01 02:32:42;;;;;;;19.95;8.27;;;2.40;99.90;;;;;;5025422;28;20112;-58
2021/03/01 02:35:10;;;;;;;18.42;8.57;;;2.40;99.90;;;;;;5003147;28;20030;-61
2021/03/01 02:37:39;;;;;;;18.55;8.18;;;2.50;99.90;;;;;;5006587;28;20042;-60
2021/03/01 02:40:06;;;;;;;19.52;8.50;;;2.50;99.90;;;;;;5006735;28;20034;-61
2021/03/01 02:42:33;;;;;;;18.85;8.75;;;2.50;99.90;;;;;;5017900;28;20052;-60
2021/03/01 02:44:59;;;;;;;19.90;8.30;;;2.50;99.90;;;;;;5021297;28;20045;-60
2021/03/01 02:47:26;;;;;;;20.85;8.25;;;2.50;99.90;;;;;;5027067;28;20021;-59
2021/03/01 02:49:55;;;;;;;18.30;8.52;;;2.50;99.90;;;;;;5015352;28;20025;-60
2021/03/01 02:52:21;;;;;;;18.88;8.90;;;2.60;99.90;;;;;;5006799;28;20034;-60
2021/03/01 02:54:48;;;;;;;17.20;8.07;;;2.60;99.90;;;;;;4995051;28;20519;-61
2021/03/01 02:57:15;;;;;;;22.75;8.27;;;2.60;99.90;;;;;;5013329;28;20410;-61
2021/03/01 02:59:43;;;;;;;17.90;8.73;;;2.60;99.90;;;;;;5022596;28;20026;-61
2021/03/01 03:02:09;;;;;;;21.63;9.13;;;2.50;99.90;;;;;;5014387;28;20030;-58
2021/03/01 03:04:36;;;;;;;20.98;11.15;;;2.50;99.90;;;;;;4992967;28;20125;-59
2021/03/01 03:07:03;;;;;;;25.30;10.90;;;2.60;99.90;;;;;;5003262;28;20046;-59
2021/03/01 03:09:30;;;;;;;20.30;9.32;;;2.60;99.90;;;;;;5007999;28;20091;-60
2021/03/01 03:11:58;;;;;;;23.00;9.73;;;2.70;99.90;;;;;;5007851;28;20022;-59
2021/03/01 03:14:26;;;;;;;23.15;8.88;;;2.70;99.90;;;;;;5019035;28;20050;-59
2021/03/01 03:16:54;;;;;;;21.23;9.52;;;2.70;99.90;;;;;;5007779;28;20038;-60
2021/03/01 03:19:21;;;;;;;18.00;8.98;;;2.70;99.90;;;;;;5002175;28;20041;-59
2021/03/01 03:21:46;;;;;;;18.33;8.77;;;2.70;99.90;;;;;;5007266;28;20022;-60
2021/03/01 03:24:13;;;;;;;23.90;10.05;;;2.70;99.90;;;;;;5000631;28;20053;-60
2021/03/01 03:26:38;;;;;;;20.75;9.80;;;2.60;99.90;;;;;;4995528;28;20022;-59
2021/03/01 03:29:04;;;;;;;20.55;9.25;;;2.50;99.90;;;;;;5027385;28;20034;-60
2021/03/01 03:31:29;;;;;;;21.60;9.75;;;2.50;99.90;;;;;;5015567;28;20043;-60
2021/03/01 03:33:56;;;;;;;26.27;9.48;;;2.40;99.90;;;;;;4996960;28;20041;-55
2021/03/01 03:36:25;;;;;;;20.58;9.25;;;2.50;99.90;;;;;;5012144;28;20053;-59
2021/03/01 03:38:57;;;;;;;21.10;8.98;;;2.50;99.90;;;;;;4998249;28;20026;-60
2021/03/01 03:41:23;;;;;;;21.83;9.93;;;2.50;99.90;;;;;;5007765;28;20044;-60
2021/03/01 03:43:50;;;;;;;18.75;9.15;;;2.40;99.90;;;;;;5014819;28;20026;-61
2021/03/01 03:46:17;;;;;;;19.73;9.07;;;2.40;99.90;;;;;;5009890;28;20463;-61
2021/03/01 03:48:44;;;;;;;21.42;9.25;;;2.40;99.90;;;;;;5002909;28;20028;-59
2021/03/01 03:51:12;;;;;;;27.55;10.73;;;2.40;99.90;;;;;;5004542;28;20033;-59
2021/03/01 03:53:47;;;;;;;18.75;8.90;;;2.40;99.90;;;;;;4938223;28;20062;-64
2021/03/01 03:56:14;;;;;;;18.30;9.10;;;2.40;99.90;;;;;;5003017;28;20034;-60
2021/03/01 03:58:49;;;;;;;25.83;9.40;;;2.40;99.90;;;;;;5009756;28;20456;-60
2021/03/01 04:01:19;;;;;;;21.95;9.63;;;2.40;99.90;;;;;;5010888;28;20489;-61
2021/03/01 04:03:47;;;;;;;20.65;8.57;;;2.40;99.90;;;;;;4995714;28;20456;-60
2021/03/01 04:06:16;;;;;;;21.90;9.05;;;2.40;99.90;;;;;;5007682;28;20030;-60
2021/03/01 04:08:45;;;;;;;25.30;8.82;;;2.50;99.90;;;;;;5006420;28;20087;-60
2021/03/01 04:11:11;;;;;;;19.58;9.02;;;2.50;99.90;;;;;;5007874;28;20384;-59
2021/03/01 04:13:43;;;;;;;19.38;8.80;;;2.50;99.90;;;;;;5017831;28;20065;-59
2021/03/01 04:16:10;;;;;;;23.02;8.93;;;2.50;99.90;;;;;;5013254;28;20495;-61
2021/03/01 04:18:38;;;;;;;19.02;8.43;;;2.40;99.90;;;;;;5009662;28;20034;-60
2021/03/01 04:21:07;;;;;;;20.30;9.07;;;2.40;99.90;;;;;;5009594;28;20513;-61
2021/03/01 04:23:35;;;;;;;22.77;9.82;;;2.30;99.90;;;;;;5005577;28;20030;-59
2021/03/01 04:26:01;;;;;;;18.55;9.10;;;2.20;99.90;;;;;;5007959;28;20144;-59
2021/03/01 04:28:28;;;;;;;18.17;8.02;;;2.10;99.90;;;;;;5005706;28;20114;-60
2021/03/01 04:30:55;;;;;;;19.13;8.73;;;2.10;99.90;;;;;;5008518;28;20030;-60
2021/03/01 04:33:22;;;;;;;21.02;9.15;;;2.10;99.90;;;;;;5009247;28;20033;-61
2021/03/01 04:35:48;;;;;;;17.15;8.43;;;2.00;99.90;;;;;;4997689;28;20043;-61
2021/03/01 04:38:15;;;;;;;23.38;8.32;;;2.00;99.90;;;;;;5003533;28;20030;-60
2021/03/01 04:40:40;;;;;;;20.20;8.07;;;1.90;99.90;;;;;;5001882;28;20057;-60
2021/03/01 04:43:10;;;;;;;16.85;7.82;;;1.90;99.90;;;;;;5008990;28;20058;-57
2021/03/01 04:45:40;;;;;;;17.70;8.00;;;1.90;99.90;;;;;;5001101;28;20030;-58
2021/03/01 04:48:07;;;;;;;22.67;10.13;;;1.90;99.90;;;;;;5009725;28;20084;-58
2021/03/01 04:50:33;;;;;;;15.90;8.10;;;1.90;99.90;;;;;;5005436;28;20026;-58
2021/03/01 04:52:59;;;;;;;18.33;7.38;;;1.90;99.90;;;;;;5013411;28;20407;-60
2021/03/01 04:55:25;;;;;;;20.70;8.88;;;1.80;99.90;;;;;;4943781;28;20133;-59
2021/03/01 04:57:53;;;;;;;16.63;8.15;;;1.80;99.90;;;;;;5010363;28;20044;-60
2021/03/01 05:00:20;;;;;;;25.58;8.68;;;1.70;99.90;;;;;;4996886;28;20037;-58
2021/03/01 05:02:46;;;;;;;16.55;7.88;;;1.70;99.90;;;;;;5000443;28;20030;-60
2021/03/01 05:05:12;;;;;;;22.50;8.10;;;1.70;99.90;;;;;;4998053;28;20034;-59
2021/03/01 05:07:38;;;;;;;18.58;8.57;;;1.70;99.90;;;;;;5006784;28;20031;-61
2021/03/01 05:10:06;;;;;;;19.23;7.35;;;1.70;99.90;;;;;;4999194;28;20033;-60
2021/03/01 05:12:31;;;;;;;16.23;7.75;;;1.60;99.90;;;;;;4994466;28;20034;-60
2021/03/01 05:14:57;;;;;;;16.33;8.90;;;1.60;99.90;;;;;;5003055;28;20038;-61
2021/03/01 05:17:22;;;;;;;15.63;7.82;;;1.50;99.90;;;;;;5002214;28;20033;-61
2021/03/01 05:19:48;;;;;;;19.85;7.93;;;1.40;99.90;;;;;;5004938;28;20148;-61
2021/03/01 05:22:14;;;;;;;19.67;8.40;;;1.30;99.90;;;;;;5005741;28;20530;-61
2021/03/01 05:24:39;;;;;;;19.63;9.32;;;1.30;99.90;;;;;;5004302;28;20084;-61
2021/03/01 05:27:05;;;;;;;18.80;8.43;;;1.20;99.90;;;;;;5012458;28;20492;-60
2021/03/01 05:29:31;;;;;;;16.20;7.57;;;1.10;99.90;;;;;;4997415;28;20052;-58
2021/03/01 05:31:56;;;;;;;18.20;8.00;;;1.10;99.90;;;;;;5005503;28;20034;-61
2021/03/01 05:34:22;;;;;;;20.70;8.52;;;1.10;99.90;;;;;;4996068;28;20043;-61
2021/03/01 05:36:47;;;;;;;16.50;8.23;;;1.00;99.90;;;;;;5000552;28;20034;-61
2021/03/01 05:39:13;;;;;;;20.83;8.73;;;1.00;99.90;;;;;;5015521;28;20033;-59
2021/03/01 05:41:45;;;;;;;20.30;7.93;;;1.00;99.90;;;;;;5007886;28;20049;-61
2021/03/01 05:44:12;;;;;;;18.50;8.83;;;1.00;99.90;;;;;;4989471;28;20038;-61
2021/03/01 05:46:41;;;;;;;25.43;8.23;;;1.00;99.90;;;;;;5008824;28;20032;-62
2021/03/01 05:49:07;;;;;;;17.27;7.78;;;1.00;99.90;;;;;;5000860;28;20057;-62
2021/03/01 05:51:36;;;;;;;17.00;8.47;;;0.90;99.90;;;;;;4997426;28;20039;-62
2021/03/01 05:54:03;;;;;;;22.90;9.70;;;0.80;99.90;;;;;;4976451;28;20050;-60
2021/03/01 05:56:29;;;;;;;16.23;8.57;;;0.80;99.90;;;;;;5008040;28;20391;-61
2021/03/01 05:58:55;;;;;;;17.37;8.43;;;0.70;99.90;;;;;;5001986;28;20064;-61
2021/03/01 06:01:23;;;;;;;19.37;7.97;;;0.70;99.90;;;;;;5009173;28;20044;-61
2021/03/01 06:03:49;;;;;;;21.90;9.07;;;0.70;99.90;;;;;;5010347;28;20026;-59
2021/03/01 06:06:14;;;;;;;16.17;8.17;;;0.80;99.90;;;;;;5001408;28;20420;-60
2021/03/01 06:08:40;;;;;;;17.27;7.83;;;0.80;99.90;;;;;;4992306;28;20032;-60
2021/03/01 06:11:08;;;;;;;18.67;8.40;;;0.80;99.90;;;;;;5007108;28;20026;-60
2021/03/01 06:13:35;;;;;;;20.87;8.20;;;0.90;99.90;;;;;;5019109;28;20068;-61
2021/03/01 06:16:02;;;;;;;20.93;9.30;;;0.90;99.90;;;;;;5005841;28;20025;-60
2021/03/01 06:18:28;;;;;;;18.93;8.73;;;0.90;99.90;;;;;;4993922;28;20087;-63
2021/03/01 06:21:07;;;;;;;22.20;10.55;;;1.00;99.90;;;;;;5009925;28;20025;-60
2021/03/01 06:23:35;;;;;;;24.17;7.80;;;1.00;99.90;;;;;;5012818;28;20030;-61
2021/03/01 06:26:19;;;;;;;19.58;8.57;;;1.00;99.90;;;;;;5004310;28;20092;-59
2021/03/01 06:28:46;;;;;;;20.45;7.38;;;1.10;99.90;;;;;;5008285;28;20087;-59
2021/03/01 06:31:35;;;;;;;17.48;8.00;;;1.20;99.90;;;;;;5006644;28;20026;-61
2021/03/01 06:34:20;;;;;;;20.67;7.70;;;1.30;99.90;;;;;;4994646;28;20143;-59
2021/03/01 06:37:05;;;;;;;16.05;7.72;;;1.40;99.90;;;;;;4990743;28;20551;-59
2021/03/01 06:39:43;;;;;;;17.50;6.93;;;1.50;99.90;;;;;;5021877;28;20068;-61
2021/03/01 06:42:17;;;;;;;20.48;7.78;;;1.60;99.90;;;;;;5013690;28;20034;-60
2021/03/01 06:44:59;;;;;;;16.88;7.05;;;1.60;99.90;;;;;;5018041;28;20108;-61
2021/03/01 06:47:43;;;;;;;21.85;8.25;;;1.60;99.90;;;;;;5015015;28;20053;-61
2021/03/01 06:50:31;;;;;;;17.67;7.65;;;1.60;99.90;;;;;;5010127;28;20125;-58
2021/03/01 06:53:10;;;;;;;14.40;7.13;;;1.60;99.90;;;;;;5007791;28;20080;-60
2021/03/01 06:55:36;;;;;;;21.83;7.78;;;1.60;99.90;;;;;;4963446;28;20045;-61
2021/03/01 06:58:18;;;;;;;16.42;7.57;;;1.60;99.90;;;;;;5005345;28;20050;-58
2021/03/01 07:00:45;;;;;;;15.57;6.85;;;1.60;99.90;;;;;;5010362;28;20055;-61
2021/03/01 07:03:20;;;;;;;21.90;8.35;;;1.50;99.90;;;;;;5020886;28;20029;-61
2021/03/01 07:05:56;;;;;;;18.27;7.30;;;1.50;99.90;;;;;;5000793;28;20054;-60
2021/03/01 07:08:32;;;;;;;19.75;7.85;;;1.50;99.90;;;;;;5000354;28;21709;-60
2021/03/01 07:10:58;;;;;;;20.65;7.90;;;1.60;99.90;;;;;;5004657;28;20100;-60
2021/03/01 07:13:28;;;;;;;18.20;7.05;;;1.80;99.90;;;;;;5019592;28;20641;-61
2021/03/01 07:15:55;;;;;;;17.48;7.60;;;1.90;99.90;;;;;;5008530;28;20025;-61
2021/03/01 07:18:21;;;;;;;16.48;7.22;;;2.00;99.90;;;;;;5004104;28;20109;-60
2021/03/01 07:20:50;;;;;;;20.15;8.27;;;2.10;99.90;;;;;;5017397;28;20025;-60
2021/03/01 07:23:16;;;;;;;13.57;6.90;;;2.20;99.90;;;;;;5018936;28;20380;-61
2021/03/01 07:25:45;;;;;;;11.98;6.25;;;2.30;99.90;;;;;;5004020;28;20022;-61
2021/03/01 07:28:18;;;;;;;17.33;7.35;;;2.40;99.90;;;;;;5004240;28;20460;-59
2021/03/01 07:30:45;;;;;;;17.60;7.00;;;2.50;99.90;;;;;;5009869;28;20022;-61
2021/03/01 07:33:15;;;;;;;15.55;6.72;;;2.60;99.90;;;;;;5007342;28;20068;-60
2021/03/01 07:35:44;;;;;;;16.88;7.43;;;2.60;99.90;;;;;;5007404;28;20671;-61
2021/03/01 07:38:10;;;;;;;18.35;7.35;;;2.80;99.90;;;;;;5014739;28;20038;-60
2021/03/01 07:40:36;;;;;;;19.60;6.53;;;2.90;99.90;;;;;;5020201;28;20065;-59
2021/03/01 07:43:07;;;;;;;18.40;7.60;;;3.00;99.90;;;;;;5010860;28;20057;-61
2021/03/01 07:45:33;;;;;;;17.08;7.80;;;3.00;99.90;;;;;;5020543;28;20045;-61
2021/03/01 07:48:10;;;;;;;13.30;6.72;;;3.10;99.90;;;;;;5022061;28;20048;-56
2021/03/01 07:50:38;;;;;;;13.95;6.45;;;3.20;99.90;;;;;;5014037;28;20040;-60
2021/03/01 07:53:03;;;;;;;12.98;5.85;;;3.30;99.90;;;;;;5003318;28;20031;-61
2021/03/01 07:55:29;;;;;;;18.40;7.75;;;3.40;99.90;;;;;;4960959;28;20793;-59
2021/03/01 07:58:05;;;;;;;15.02;6.70;;;3.60;99.90;;;;;;5001218;28;20526;-59
2021/03/01 08:00:34;;;;;;;14.50;6.50;;;3.70;99.90;;;;;;5015261;28;20030;-59
2021/03/01 08:03:01;;;;;;;12.10;5.80;;;3.70;99.90;;;;;;5002427;28;20022;-60
2021/03/01 08:05:33;;;;;;;15.90;7.00;;;3.80;99.90;;;;;;5009353;28;20372;-60
2021/03/01 08:08:00;;;;;;;11.68;6.32;;;3.90;99.90;;;;;;5009237;28;20581;-59
2021/03/01 08:10:28;;;;;;;16.13;6.70;;;3.90;99.90;;;;;;5005868;28;20079;-61
2021/03/01 08:12:58;;;;;;;15.98;6.55;;;4.00;99.90;;;;;;5010386;28;20026;-61
2021/03/01 08:15:26;;;;;;;19.90;7.65;;;4.10;99.90;;;;;;5011716;28;20034;-59
2021/03/01 08:17:52;;;;;;;12.88;7.25;;;4.10;99.90;;;;;;5014650;28;20068;-60
2021/03/01 08:20:23;;;;;;;16.80;7.18;;;4.10;99.90;;;;;;5012137;28;20033;-60
2021/03/01 08:23:04;;;;;;;12.98;6.28;;;4.20;99.90;;;;;;5005290;28;20660;-61
2021/03/01 08:25:51;;;;;;;11.27;6.28;;;4.30;99.90;;;;;;5004304;28;20542;-60
2021/03/01 08:28:17;;;;;;;14.60;7.10;;;4.30;99.90;;;;;;5005021;28;20019;-62
2021/03/01 08:30:43;;;;;;;14.02;6.03;;;4.40;99.90;;;;;;5020898;28;20079;-59
2021/03/01 08:33:09;;;;;;;14.73;6.32;;;4.60;99.90;;;;;;5009177;28;20109;-59
2021/03/01 08:35:45;;;;;;;17.67;7.30;;;4.70;99.90;;;;;;5011043;28;20121;-60
2021/03/01 08:38:13;;;;;;;15.02;7.55;;;4.90;99.90;;;;;;5005816;28;20026;-61
2021/03/01 08:40:56;;;;;;;17.73;6.80;;;5.00;99.90;;;;;;5008351;28;20038;-60
2021/03/01 08:43:32;;;;;;;15.18;5.93;;;5.10;99.90;;;;;;5004739;28;20092;-60
2021/03/01 08:45:58;;;;;;;18.05;6.25;;;5.10;99.90;;;;;;5022219;28;20360;-60
2021/03/01 08:48:24;;;;;;;12.27;6.00;;;5.20;99.90;;;;;;5012183;28;20028;-62
2021/03/01 08:50:52;;;;;;;11.50;6.00;;;5.30;99.90;;;;;;5017816;28;20013;-62
2021/03/01 08:53:26;;;;;;;16.88;6.07;;;5.40;99.90;;;;;;5005433;28;20042;-59
2021/03/01 08:55:53;;;;;;;16.83;5.88;;;5.50;99.90;;;;;;4959646;28;20515;-61
2021/03/01 08:58:19;;;;;;;13.98;6.32;;;5.50;99.90;;;;;;4998524;28;20034;-61
2021/03/01 09:01:03;;;;;;;12.68;5.95;;;5.70;99.90;;;;;;5007512;28;20480;-62
2021/03/01 09:03:30;;;;;;;16.08;6.50;;;5.80;99.90;;;;;;5000679;28;20685;-60
2021/03/01 09:06:08;;;;;;;12.55;6.05;;;5.90;99.90;;;;;;5007621;28;20381;-60
2021/03/01 09:08:36;;;;;;;9.43;5.20;;;6.00;99.90;;;;;;5016260;28;20030;-61
2021/03/01 09:11:15;;;;;;;14.85;5.78;;;6.20;99.90;;;;;;5009639;28;20483;-62
2021/03/01 09:13:45;;;;;;;15.55;5.85;;;6.30;99.90;;;;;;5021727;28;20104;-61
2021/03/01 09:16:26;;;;;;;18.75;6.50;;;6.40;99.90;;;;;;5008985;28;20406;-61
2021/03/01 09:19:00;;;;;;;15.95;5.72;;;6.40;99.90;;;;;;5011456;28;20052;-61
2021/03/01 09:21:26;;;;;;;12.90;5.95;;;6.50;99.90;;;;;;5014876;28;20100;-62
2021/03/01 09:23:54;;;;;;;14.00;5.85;;;6.60;99.90;;;;;;5009248;28;20029;-62
2021/03/01 09:26:28;;;;;;;15.40;6.53;;;6.70;99.90;;;;;;5007526;28;20029;-61
2021/03/01 09:29:14;;;;;;;11.52;5.72;;;7.20;99.90;;;;;;5003845;28;20034;-61
2021/03/01 09:31:43;;;;;;;11.57;5.55;;;8.20;99.90;;;;;;5017370;28;20570;-62
2021/03/01 09:34:11;;;;;;;13.02;5.80;;;8.90;99.90;;;;;;5005522;28;20057;-61
2021/03/01 09:36:37;;;;;;;12.73;5.80;;;9.60;99.90;;;;;;4947701;28;20109;-62
2021/03/01 09:39:07;;;;;;;11.35;6.32;;;10.40;99.90;;;;;;5007044;28;20050;-63
2021/03/01 09:41:39;;;;;;;9.73;5.82;;;10.80;99.90;;;;;;5003633;28;20041;-63
2021/03/01 09:44:06;;;;;;;11.32;6.68;;;11.10;99.90;;;;;;5018804;28;20029;-62
2021/03/01 09:46:33;;;;;;;14.38;6.47;;;11.60;98.10;;;;;;5013621;28;20026;-62
2021/03/01 09:49:02;;;;;;;13.68;7.03;;;11.70;98.40;;;;;;5005364;28;20029;-63
2021/03/01 09:51:29;;;;;;;10.93;6.82;;;11.90;98.60;;;;;;5010024;28;20030;-62
2021/03/01 09:54:00;;;;;;;11.00;5.97;;;12.20;97.80;;;;;;5003366;28;20038;-62
2021/03/01 09:56:46;;;;;;;10.13;6.60;;;12.50;97.00;;;;;;4967499;28;20121;-63
2021/03/01 09:59:12;;;;;;;11.18;6.25;;;12.50;94.20;;;;;;4987709;28;20029;-63
2021/03/01 10:01:38;;;;;;;10.23;7.05;;;12.80;94.30;;;;;;4987227;28;20462;-64
2021/03/01 10:04:05;;;;;;;11.30;6.47;;;13.10;93.10;;;;;;4985531;28;20066;-63
2021/03/01 10:06:36;;;;;;;13.30;6.82;;;13.20;92.90;;;;;;5000149;28;20037;-63
2021/03/01 10:09:11;;;;;;;9.63;6.18;;;13.60;93.10;;;;;;4990412;28;20034;-63
2021/03/01 10:11:38;;;;;;;8.63;6.18;;;13.80;93.10;;;;;;4986314;28;20029;-61
2021/03/01 10:14:05;;;;;;;13.35;7.40;;;13.90;92.20;;;;;;4992552;28;20110;-61
2021/03/01 10:16:39;;;;;;;11.05;7.07;;;13.80;91.40;;;;;;4993228;28;20025;-62
2021/03/01 10:19:14;;;;;;;8.35;6.07;;;14.10;89.50;;;;;;4983209;28;20042;-62
2021/03/01 10:21:41;;;;;;;8.75;6.03;;;14.10;83.60;;;;;;4981401;28;20109;-62
2021/03/01 10:24:08;;;;;;;8.25;6.07;;;13.90;82.80;;;;;;4979463;28;20026;-63
2021/03/01 10:26:55;;;;;;;11.27;6.65;;;13.80;86.50;;;;;;4993582;28;20030;-61
2021/03/01 10:29:38;;;;;;;9.45;5.70;;;13.40;89.20;;;;;;5000399;28;20018;-61
2021/03/01 10:32:15;;;;;;;10.65;6.50;;;13.10;90.50;;;;;;4985442;28;20614;-60
2021/03/01 10:34:41;;;;;;;10.38;6.57;;;13.00;90.80;;;;;;4978406;28;20057;-61
2021/03/01 10:37:11;;;;;;;15.73;6.05;;;12.70;90.40;;;;;;4983246;28;20764;-63
2021/03/01 10:39:42;;;;;;;11.10;5.68;;;12.60;87.30;;;;;;4983915;28;20488;-60
2021/03/01 10:42:15;;;;;;;8.85;5.90;;;12.50;90.40;;;;;;4989125;28;20038;-60
2021/03/01 10:44:46;;;;;;;9.00;5.50;;;12.40;91.00;;;;;;4994300;28;20046;-64
2021/03/01 10:47:19;;;;;;;9.23;5.90;;;12.40;90.00;;;;;;5000062;28;20068;-61
2021/03/01 10:49:46;;;;;;;7.93;5.03;;;12.30;90.10;;;;;;4975686;28;20022;-61
2021/03/01 10:52:14;;;;;;;8.00;5.40;;;12.20;90.50;;;;;;4976793;28;20078;-62
2021/03/01 10:54:40;;;;;;;9.00;5.47;;;12.30;91.60;;;;;;4975510;28;20026;-61
2021/03/01 10:57:06;;;;;;;10.18;5.78;;;12.20;91.00;;;;;;4984448;28;20514;-61
2021/03/01 10:59:33;;;;;;;8.57;4.90;;;12.20;91.80;;;;;;4986607;28;20034;-61
2021/03/01 11:01:59;;;;;;;9.38;5.45;;;12.20;92.10;;;;;;4993602;28;20108;-60
2021/03/01 11:04:24;;;;;;;11.50;6.00;;;12.30;92.10;;;;;;4980973;28;20038;-62
2021/03/01 11:06:51;;;;;;;11.07;6.05;;;12.40;91.70;;;;;;4978534;28;20031;-63
2021/03/01 11:09:17;;;;;;;9.05;4.78;;;12.20;90.40;;;;;;4984285;28;20035;-62
2021/03/01 11:11:44;;;;;;;10.32;5.65;;;12.30;91.20;;;;;;4989734;28;20041;-63
2021/03/01 11:14:11;;;;;;;9.27;5.00;;;12.30;90.60;;;;;;4993805;28;20396;-62
2021/03/01 11:16:37;;;;;;;8.88;5.05;;;12.40;91.00;;;;;;4984385;28;20090;-62
2021/03/01 11:19:04;;;;;;;10.88;4.90;;;12.40;91.50;;;;;;4976759;28;20062;-62
2021/03/01 11:21:30;;;;;;;10.80;4.88;;;12.50;90.50;;;;;;4978674;28;20130;-62
2021/03/01 11:23:56;;;;;;;9.15;5.50;;;12.40;90.80;;;;;;4988105;28;20472;-63
2021/03/01 11:26:22;;;;;;;11.40;5.43;;;12.50;91.20;;;;;;4985642;28;20046;-63
2021/03/01 11:28:48;;;;;;;9.60;5.40;;;12.60;91.80;;;;;;5001184;28;20076;-62
2021/03/01 11:31:15;;;;;;;6.75;4.63;;;12.60;90.60;;;;;;4990180;28;20084;-64
2021/03/01 11:33:40;;;;;;;10.10;5.00;;;12.70;89.90;;;;;;4980200;28;20097;-61
2021/03/01 11:36:07;;;;;;;6.55;4.25;;;12.70;89.70;;;;;;4976517;28;20551;-61
2021/03/01 11:38:33;;;;;;;8.52;5.18;;;12.70;88.80;;;;;;4976332;28;20034;-61
2021/03/01 11:40:59;;;;;;;8.20;4.78;;;12.70;88.70;;;;;;4983156;28;20109;-63
2021/03/01 11:43:25;;;;;;;9.57;4.60;;;12.60;86.20;;;;;;4989300;28;20109;-62
2021/03/01 11:45:50;;;;;;;9.32;4.95;;;12.70;90.00;;;;;;5000956;28;20022;-62
2021/03/01 11:48:17;;;;;;;11.32;4.97;;;12.70;88.50;;;;;;4990407;28;20034;-62
2021/03/01 11:50:44;;;;;;;10.40;5.30;;;12.80;89.50;;;;;;4978901;28;20030;-61
2021/03/01 11:53:10;;;;;;;8.30;4.93;;;12.80;89.10;;;;;;4982581;28;20053;-62
2021/03/01 11:55:36;;;;;;;10.40;5.28;;;12.90;87.20;;;;;;4978732;28;20034;-62
2021/03/01 11:58:02;;;;;;;11.02;4.95;;;12.90;87.20;;;;;;4990212;28;20118;-61
2021/03/01 12:00:27;;;;;;;9.52;4.65;;;12.90;87.70;;;;;;4996700;28;20026;-62
2021/03/01 12:02:53;;;;;;;9.25;5.40;;;12.90;89.50;;;;;;4994295;28;20030;-63
2021/03/01 12:05:19;;;;;;;9.50;5.47;;;13.00;86.90;;;;;;4980121;28;20027;-62
2021/03/01 12:07:45;;;;;;;9.50;5.35;;;13.00;86.70;;;;;;4985131;28;20022;-62
2021/03/01 12:10:12;;;;;;;7.20;4.95;;;12.90;85.30;;;;;;4979587;28;20105;-63
2021/03/01 12:12:37;;;;;;;10.38;4.75;;;12.90;87.70;;;;;;4991956;28;20026;-61
2021/03/01 12:15:04;;;;;;;11.18;5.78;;;13.00;87.00;;;;;;4992830;28;20042;-63
2021/03/01 12:17:30;;;;;;;7.55;5.07;;;12.90;87.70;;;;;;4988890;28;20030;-62
2021/03/01 12:19:55;;;;;;;7.63;4.80;;;13.00;83.90;;;;;;4996439;28;20506;-61
2021/03/01 12:22:21;;;;;;;8.93;4.88;;;12.90;87.60;;;;;;4986213;28;20048;-63
2021/03/01 12:24:46;;;;;;;7.65;4.93;;;12.90;85.80;;;;;;4978579;28;20027;-62
2021/03/01 12:27:12;;;;;;;8.73;4.40;;;12.90;87.00;;;;;;4988587;28;20415;-63
2021/03/01 12:29:38;;;;;;;9.23;4.95;;;12.90;85.80;;;;;;4989025;28;20030;-63
2021/03/01 12:32:04;;;;;;;9.27;4.88;;;12.90;83.80;;;;;;4993322;28;20511;-62
2021/03/01 12:34:29;;;;;;;6.57;4.18;;;12.90;85.90;;;;;;4978604;28;20030;-62
2021/03/01 12:36:55;;;;;;;8.27;5.40;;;12.90;85.80;;;;;;4970812;28;20030;-63
2021/03/01 12:39:20;;;;;;;10.75;5.45;;;12.90;84.70;;;;;;4974040;28;20031;-62
2021/03/01 12:41:46;;;;;;;7.93;4.20;;;12.90;83.40;;;;;;4982701;28;20483;-62
2021/03/01 12:44:12;;;;;;;6.90;3.83;;;12.90;87.50;;;;;;4997723;28;20037;-63
2021/03/01 12:46:37;;;;;;;7.13;4.30;;;12.90;84.30;;;;;;4986175;28;20145;-61
2021/03/01 12:49:03;;;;;;;7.68;4.10;;;12.90;82.50;;;;;;4979626;28;20034;-64
2021/03/01 12:51:28;;;;;;;6.82;4.07;;;12.90;84.50;;;;;;4984223;28;20842;-63